HTMG

Morogoro Airport

Morogoro, Tanzania
METAR HTMG 161300Z 00000KT 9999 BKN027 FEW028CB 33/20 Q1014
Observed Flight Rules
Dec-16 @ 13:00 UTC (52 minutes ago) Marginal Visual Flight Rules
Visibility Clouds
10,000+ meters
  • Broken at 2,700' AGL
  • Few at 2,800' AGL
Temperatures Readings
Current 33°C / 91°F
Dewpoint 20°C / 68°F
Humidity 46%
Altimeter 29.94" Hg
Pressure 1014 hPa
Elevation 526
METAR HTMG 161300Z 00000KT 9999 BKN027 FEW028CB 33/20 Q1014
Observed Flight Rules
Dec-16 @ 13:00 UTC
(52 minutes ago)
MVFR
Clouds
  • Broken at 2,700' AGL
  • Few at 2,800' AGL
Temperature Dewpoint
33°C / 91°F 20°C / 68°F
Humidity Altimeter Pressure
46% 29.94" Hg 1014 hPa